sensor_id;sensor_type;location;lat;lon;timestamp;P1;durP1;ratioP1;P2;durP2;ratioP2
15970;SDS011;59785;52.582;13.892;2022-08-19T00:09:32;12.48;;;11.27;;
15970;SDS011;59785;52.582;13.892;2022-08-19T00:11:59;13.95;;;12.65;;
15970;SDS011;59785;52.582;13.892;2022-08-19T00:14:26;14.75;;;13.15;;
15970;SDS011;59785;52.582;13.892;2022-08-19T00:16:57;13.27;;;11.90;;
15970;SDS011;59785;52.582;13.892;2022-08-19T00:19:24;14.77;;;13.20;;
15970;SDS011;59785;52.582;13.892;2022-08-19T00:21:50;14.20;;;12.88;;
15970;SDS011;59785;52.582;13.892;2022-08-19T00:24:17;13.43;;;12.05;;
15970;SDS011;59785;52.582;13.892;2022-08-19T00:26:44;13.70;;;12.30;;
15970;SDS011;59785;52.582;13.892;2022-08-19T00:29:12;13.45;;;11.80;;
15970;SDS011;59785;52.582;13.892;2022-08-19T00:31:40;14.07;;;12.57;;
15970;SDS011;59785;52.582;13.892;2022-08-19T00:34:07;16.38;;;13.98;;
15970;SDS011;59785;52.582;13.892;2022-08-19T00:36:33;15.45;;;13.48;;
15970;SDS011;59785;52.582;13.892;2022-08-19T00:39:00;15.90;;;14.40;;
15970;SDS011;59785;52.582;13.892;2022-08-19T00:41:26;16.52;;;14.82;;
15970;SDS011;59785;52.582;13.892;2022-08-19T00:44:00;16.35;;;14.75;;
15970;SDS011;59785;52.582;13.892;2022-08-19T00:46:31;15.82;;;14.32;;
15970;SDS011;59785;52.582;13.892;2022-08-19T00:48:59;18.20;;;15.82;;
15970;SDS011;59785;52.582;13.892;2022-08-19T00:51:27;19.77;;;17.55;;
15970;SDS011;59785;52.582;13.892;2022-08-19T00:53:56;23.65;;;18.33;;
15970;SDS011;59785;52.582;13.892;2022-08-19T00:56:24;25.83;;;18.58;;
15970;SDS011;59785;52.582;13.892;2022-08-19T00:58:53;21.73;;;17.20;;
15970;SDS011;59785;52.582;13.892;2022-08-19T01:01:22;28.10;;;20.77;;
15970;SDS011;59785;52.582;13.892;2022-08-19T01:03:48;22.85;;;17.55;;
15970;SDS011;59785;52.582;13.892;2022-08-19T01:06:23;22.10;;;18.30;;
15970;SDS011;59785;52.582;13.892;2022-08-19T01:08:49;22.55;;;18.83;;
15970;SDS011;59785;52.582;13.892;2022-08-19T01:11:15;25.80;;;19.38;;
15970;SDS011;59785;52.582;13.892;2022-08-19T01:13:42;23.38;;;19.15;;
15970;SDS011;59785;52.582;13.892;2022-08-19T01:16:15;33.58;;;21.85;;
15970;SDS011;59785;52.582;13.892;2022-08-19T01:18:43;157.88;;;28.08;;
15970;SDS011;59785;52.582;13.892;2022-08-19T01:21:12;232.68;;;32.55;;
15970;SDS011;59785;52.582;13.892;2022-08-19T01:23:58;228.60;;;33.85;;
15970;SDS011;59785;52.582;13.892;2022-08-19T01:26:25;30.10;;;21.65;;
15970;SDS011;59785;52.582;13.892;2022-08-19T01:28:54;31.10;;;21.05;;
15970;SDS011;59785;52.582;13.892;2022-08-19T01:31:26;32.85;;;21.88;;
15970;SDS011;59785;52.582;13.892;2022-08-19T01:33:58;33.38;;;23.85;;
15970;SDS011;59785;52.582;13.892;2022-08-19T01:36:41;77.05;;;28.15;;
15970;SDS011;59785;52.582;13.892;2022-08-19T01:41:38;34.72;;;25.98;;
15970;SDS011;59785;52.582;13.892;2022-08-19T01:44:05;36.28;;;25.27;;
15970;SDS011;59785;52.582;13.892;2022-08-19T01:46:44;35.92;;;26.23;;
15970;SDS011;59785;52.582;13.892;2022-08-19T01:49:13;36.70;;;27.05;;
15970;SDS011;59785;52.582;13.892;2022-08-19T01:51:40;36.80;;;26.63;;
15970;SDS011;59785;52.582;13.892;2022-08-19T01:54:07;35.33;;;27.23;;
15970;SDS011;59785;52.582;13.892;2022-08-19T01:56:34;37.08;;;26.95;;
15970;SDS011;59785;52.582;13.892;2022-08-19T01:59:02;40.00;;;27.90;;
15970;SDS011;59785;52.582;13.892;2022-08-19T02:01:34;39.88;;;27.88;;
15970;SDS011;59785;52.582;13.892;2022-08-19T02:04:00;48.05;;;28.38;;
15970;SDS011;59785;52.582;13.892;2022-08-19T02:06:27;36.97;;;27.00;;
15970;SDS011;59785;52.582;13.892;2022-08-19T02:08:54;42.20;;;28.63;;
15970;SDS011;59785;52.582;13.892;2022-08-19T02:11:24;41.35;;;27.58;;
15970;SDS011;59785;52.582;13.892;2022-08-19T02:13:53;42.55;;;29.70;;
15970;SDS011;59785;52.582;13.892;2022-08-19T02:16:20;38.72;;;28.55;;
15970;SDS011;59785;52.582;13.892;2022-08-19T02:18:47;45.88;;;29.60;;
15970;SDS011;59785;52.582;13.892;2022-08-19T02:21:17;45.42;;;30.35;;
15970;SDS011;59785;52.582;13.892;2022-08-19T02:23:45;45.08;;;30.90;;
15970;SDS011;59785;52.582;13.892;2022-08-19T02:26:11;55.20;;;32.95;;
15970;SDS011;59785;52.582;13.892;2022-08-19T02:28:38;49.70;;;31.85;;
15970;SDS011;59785;52.582;13.892;2022-08-19T02:31:10;52.78;;;33.45;;
15970;SDS011;59785;52.582;13.892;2022-08-19T02:33:38;55.25;;;33.00;;
15970;SDS011;59785;52.582;13.892;2022-08-19T02:36:05;49.58;;;33.35;;
15970;SDS011;59785;52.582;13.892;2022-08-19T02:38:32;50.45;;;32.90;;
15970;SDS011;59785;52.582;13.892;2022-08-19T02:40:59;51.17;;;34.08;;
15970;SDS011;59785;52.582;13.892;2022-08-19T02:43:28;50.53;;;32.90;;
15970;SDS011;59785;52.582;13.892;2022-08-19T02:45:59;55.90;;;35.08;;
15970;SDS011;59785;52.582;13.892;2022-08-19T02:48:26;60.13;;;33.30;;
15970;SDS011;59785;52.582;13.892;2022-08-19T02:50:52;50.90;;;32.90;;
15970;SDS011;59785;52.582;13.892;2022-08-19T02:53:24;55.92;;;33.88;;
15970;SDS011;59785;52.582;13.892;2022-08-19T02:55:52;49.55;;;31.85;;
15970;SDS011;59785;52.582;13.892;2022-08-19T02:58:19;48.17;;;33.40;;
15970;SDS011;59785;52.582;13.892;2022-08-19T03:00:48;54.65;;;35.45;;
15970;SDS011;59785;52.582;13.892;2022-08-19T03:03:16;53.95;;;33.90;;
15970;SDS011;59785;52.582;13.892;2022-08-19T03:05:43;57.40;;;34.88;;
15970;SDS011;59785;52.582;13.892;2022-08-19T03:08:20;52.85;;;33.60;;
15970;SDS011;59785;52.582;13.892;2022-08-19T03:10:47;57.35;;;35.55;;
15970;SDS011;59785;52.582;13.892;2022-08-19T03:13:14;58.28;;;35.72;;
15970;SDS011;59785;52.582;13.892;2022-08-19T03:15:44;53.63;;;33.97;;
15970;SDS011;59785;52.582;13.892;2022-08-19T03:18:12;58.65;;;35.58;;
15970;SDS011;59785;52.582;13.892;2022-08-19T03:20:45;55.08;;;33.47;;
15970;SDS011;59785;52.582;13.892;2022-08-19T03:23:13;51.80;;;32.38;;
15970;SDS011;59785;52.582;13.892;2022-08-19T03:25:42;49.65;;;30.95;;
15970;SDS011;59785;52.582;13.892;2022-08-19T03:28:11;49.95;;;32.55;;
15970;SDS011;59785;52.582;13.892;2022-08-19T03:30:39;44.20;;;29.67;;
15970;SDS011;59785;52.582;13.892;2022-08-19T03:33:08;48.97;;;30.35;;
15970;SDS011;59785;52.582;13.892;2022-08-19T03:35:42;49.77;;;31.30;;
15970;SDS011;59785;52.582;13.892;2022-08-19T03:38:08;46.10;;;30.30;;
15970;SDS011;59785;52.582;13.892;2022-08-19T03:40:36;45.70;;;31.17;;
15970;SDS011;59785;52.582;13.892;2022-08-19T03:43:02;51.65;;;32.88;;
15970;SDS011;59785;52.582;13.892;2022-08-19T03:45:29;47.50;;;31.58;;
15970;SDS011;59785;52.582;13.892;2022-08-19T03:47:55;48.38;;;30.73;;
15970;SDS011;59785;52.582;13.892;2022-08-19T03:50:21;45.78;;;29.05;;
15970;SDS011;59785;52.582;13.892;2022-08-19T03:52:51;48.92;;;30.75;;
15970;SDS011;59785;52.582;13.892;2022-08-19T03:55:18;45.88;;;29.98;;
15970;SDS011;59785;52.582;13.892;2022-08-19T03:57:44;46.38;;;29.38;;
15970;SDS011;59785;52.582;13.892;2022-08-19T04:00:12;50.08;;;32.83;;
15970;SDS011;59785;52.582;13.892;2022-08-19T04:02:39;48.25;;;30.23;;
15970;SDS011;59785;52.582;13.892;2022-08-19T04:05:06;46.65;;;29.98;;
15970;SDS011;59785;52.582;13.892;2022-08-19T04:07:33;49.75;;;30.55;;
15970;SDS011;59785;52.582;13.892;2022-08-19T04:10:00;44.97;;;28.90;;
15970;SDS011;59785;52.582;13.892;2022-08-19T04:12:26;47.25;;;31.23;;
15970;SDS011;59785;52.582;13.892;2022-08-19T04:14:52;49.90;;;32.33;;
15970;SDS011;59785;52.582;13.892;2022-08-19T04:17:19;51.65;;;32.10;;
15970;SDS011;59785;52.582;13.892;2022-08-19T04:19:45;51.63;;;33.08;;
15970;SDS011;59785;52.582;13.892;2022-08-19T04:22:11;51.83;;;34.50;;
15970;SDS011;59785;52.582;13.892;2022-08-19T04:24:37;53.85;;;33.42;;
15970;SDS011;59785;52.582;13.892;2022-08-19T04:27:03;49.92;;;32.72;;
15970;SDS011;59785;52.582;13.892;2022-08-19T04:29:32;53.92;;;34.80;;
15970;SDS011;59785;52.582;13.892;2022-08-19T04:31:59;52.40;;;31.92;;
15970;SDS011;59785;52.582;13.892;2022-08-19T04:34:34;54.55;;;35.40;;
15970;SDS011;59785;52.582;13.892;2022-08-19T04:37:00;54.35;;;34.67;;
15970;SDS011;59785;52.582;13.892;2022-08-19T04:39:29;53.72;;;34.15;;
15970;SDS011;59785;52.582;13.892;2022-08-19T04:42:15;52.60;;;34.88;;
15970;SDS011;59785;52.582;13.892;2022-08-19T04:45:02;54.83;;;34.33;;
15970;SDS011;59785;52.582;13.892;2022-08-19T04:47:33;49.58;;;34.50;;
15970;SDS011;59785;52.582;13.892;2022-08-19T04:50:14;53.13;;;34.75;;
15970;SDS011;59785;52.582;13.892;2022-08-19T04:52:43;54.80;;;34.95;;
15970;SDS011;59785;52.582;13.892;2022-08-19T04:55:10;56.83;;;36.28;;
15970;SDS011;59785;52.582;13.892;2022-08-19T04:57:36;51.80;;;32.83;;
15970;SDS011;59785;52.582;13.892;2022-08-19T05:00:06;56.88;;;35.67;;
15970;SDS011;59785;52.582;13.892;2022-08-19T05:02:37;57.20;;;35.55;;
15970;SDS011;59785;52.582;13.892;2022-08-19T05:05:04;54.78;;;35.03;;
15970;SDS011;59785;52.582;13.892;2022-08-19T05:07:32;55.63;;;35.30;;
15970;SDS011;59785;52.582;13.892;2022-08-19T05:09:58;57.90;;;34.53;;
15970;SDS011;59785;52.582;13.892;2022-08-19T05:12:25;52.42;;;34.75;;
15970;SDS011;59785;52.582;13.892;2022-08-19T05:14:54;55.95;;;34.90;;
15970;SDS011;59785;52.582;13.892;2022-08-19T05:17:23;50.92;;;34.13;;
15970;SDS011;59785;52.582;13.892;2022-08-19T05:19:53;51.20;;;33.10;;
15970;SDS011;59785;52.582;13.892;2022-08-19T05:22:39;53.25;;;35.30;;
15970;SDS011;59785;52.582;13.892;2022-08-19T05:25:07;57.42;;;35.08;;
15970;SDS011;59785;52.582;13.892;2022-08-19T05:27:38;54.53;;;34.67;;
15970;SDS011;59785;52.582;13.892;2022-08-19T05:30:05;51.70;;;35.58;;
15970;SDS011;59785;52.582;13.892;2022-08-19T05:32:32;54.17;;;34.60;;
15970;SDS011;59785;52.582;13.892;2022-08-19T05:34:58;60.83;;;36.53;;
15970;SDS011;59785;52.582;13.892;2022-08-19T05:37:24;57.03;;;36.35;;
15970;SDS011;59785;52.582;13.892;2022-08-19T05:39:53;54.65;;;36.05;;
15970;SDS011;59785;52.582;13.892;2022-08-19T05:42:20;57.88;;;35.53;;
15970;SDS011;59785;52.582;13.892;2022-08-19T05:44:48;53.10;;;34.53;;
15970;SDS011;59785;52.582;13.892;2022-08-19T05:47:15;56.63;;;35.85;;
15970;SDS011;59785;52.582;13.892;2022-08-19T05:49:42;52.10;;;34.65;;
15970;SDS011;59785;52.582;13.892;2022-08-19T05:52:10;51.63;;;34.63;;
15970;SDS011;59785;52.582;13.892;2022-08-19T05:54:43;48.75;;;34.75;;
15970;SDS011;59785;52.582;13.892;2022-08-19T05:57:15;52.00;;;33.97;;
15970;SDS011;59785;52.582;13.892;2022-08-19T05:59:42;54.00;;;34.30;;
15970;SDS011;59785;52.582;13.892;2022-08-19T06:02:10;50.80;;;34.55;;
15970;SDS011;59785;52.582;13.892;2022-08-19T06:04:37;49.30;;;33.83;;
15970;SDS011;59785;52.582;13.892;2022-08-19T06:07:05;50.60;;;35.25;;
15970;SDS011;59785;52.582;13.892;2022-08-19T06:09:37;50.20;;;34.75;;
15970;SDS011;59785;52.582;13.892;2022-08-19T06:12:03;44.22;;;33.25;;
15970;SDS011;59785;52.582;13.892;2022-08-19T06:14:30;50.28;;;33.80;;
15970;SDS011;59785;52.582;13.892;2022-08-19T06:17:04;47.15;;;34.70;;
15970;SDS011;59785;52.582;13.892;2022-08-19T06:19:32;45.60;;;33.75;;
15970;SDS011;59785;52.582;13.892;2022-08-19T06:21:59;51.80;;;35.67;;
15970;SDS011;59785;52.582;13.892;2022-08-19T06:24:27;46.33;;;34.45;;
15970;SDS011;59785;52.582;13.892;2022-08-19T06:26:55;44.25;;;32.97;;
15970;SDS011;59785;52.582;13.892;2022-08-19T06:29:26;48.08;;;34.28;;
15970;SDS011;59785;52.582;13.892;2022-08-19T06:31:55;42.33;;;32.22;;
15970;SDS011;59785;52.582;13.892;2022-08-19T06:34:23;40.90;;;31.83;;
15970;SDS011;59785;52.582;13.892;2022-08-19T06:36:50;39.72;;;31.73;;
15970;SDS011;59785;52.582;13.892;2022-08-19T06:39:22;40.97;;;32.03;;
15970;SDS011;59785;52.582;13.892;2022-08-19T06:41:50;38.53;;;29.75;;
15970;SDS011;59785;52.582;13.892;2022-08-19T06:44:24;35.78;;;29.55;;
15970;SDS011;59785;52.582;13.892;2022-08-19T06:46:52;41.30;;;30.13;;
15970;SDS011;59785;52.582;13.892;2022-08-19T06:49:19;34.83;;;30.42;;
15970;SDS011;59785;52.582;13.892;2022-08-19T06:51:47;37.88;;;28.38;;
15970;SDS011;59785;52.582;13.892;2022-08-19T06:54:16;36.95;;;29.00;;
15970;SDS011;59785;52.582;13.892;2022-08-19T06:56:45;35.78;;;28.70;;
15970;SDS011;59785;52.582;13.892;2022-08-19T06:59:12;33.10;;;27.92;;
15970;SDS011;59785;52.582;13.892;2022-08-19T07:01:44;38.95;;;29.38;;
15970;SDS011;59785;52.582;13.892;2022-08-19T07:04:14;33.33;;;27.48;;
15970;SDS011;59785;52.582;13.892;2022-08-19T07:06:44;31.23;;;26.73;;
15970;SDS011;59785;52.582;13.892;2022-08-19T07:09:19;33.03;;;28.02;;
15970;SDS011;59785;52.582;13.892;2022-08-19T07:11:46;33.42;;;27.35;;
15970;SDS011;59785;52.582;13.892;2022-08-19T07:14:19;34.58;;;28.60;;
15970;SDS011;59785;52.582;13.892;2022-08-19T07:16:49;34.55;;;28.95;;
15970;SDS011;59785;52.582;13.892;2022-08-19T07:19:17;38.53;;;28.75;;
15970;SDS011;59785;52.582;13.892;2022-08-19T07:21:46;35.80;;;29.05;;
15970;SDS011;59785;52.582;13.892;2022-08-19T07:24:15;36.40;;;29.08;;
15970;SDS011;59785;52.582;13.892;2022-08-19T07:26:43;35.95;;;29.48;;
15970;SDS011;59785;52.582;13.892;2022-08-19T07:29:10;39.33;;;31.50;;
15970;SDS011;59785;52.582;13.892;2022-08-19T07:31:38;37.83;;;30.50;;
15970;SDS011;59785;52.582;13.892;2022-08-19T07:34:05;38.80;;;32.00;;
15970;SDS011;59785;52.582;13.892;2022-08-19T07:36:33;38.00;;;30.45;;
15970;SDS011;59785;52.582;13.892;2022-08-19T07:39:03;38.25;;;30.50;;
15970;SDS011;59785;52.582;13.892;2022-08-19T07:41:32;38.70;;;30.33;;
15970;SDS011;59785;52.582;13.892;2022-08-19T07:44:01;39.97;;;31.55;;
15970;SDS011;59785;52.582;13.892;2022-08-19T07:46:30;39.35;;;30.70;;
15970;SDS011;59785;52.582;13.892;2022-08-19T07:48:57;38.97;;;32.28;;
15970;SDS011;59785;52.582;13.892;2022-08-19T07:51:23;40.05;;;31.67;;
15970;SDS011;59785;52.582;13.892;2022-08-19T07:54:02;33.70;;;29.60;;
15970;SDS011;59785;52.582;13.892;2022-08-19T07:56:28;35.35;;;28.85;;
15970;SDS011;59785;52.582;13.892;2022-08-19T07:58:54;37.33;;;29.92;;
15970;SDS011;59785;52.582;13.892;2022-08-19T08:01:22;33.97;;;28.67;;
15970;SDS011;59785;52.582;13.892;2022-08-19T08:03:51;38.63;;;29.65;;
15970;SDS011;59785;52.582;13.892;2022-08-19T08:06:41;34.65;;;28.13;;
15970;SDS011;59785;52.582;13.892;2022-08-19T08:09:28;32.70;;;27.75;;
15970;SDS011;59785;52.582;13.892;2022-08-19T08:12:02;30.40;;;26.25;;
15970;SDS011;59785;52.582;13.892;2022-08-19T08:14:52;32.03;;;27.67;;
15970;SDS011;59785;52.582;13.892;2022-08-19T08:17:21;30.33;;;26.20;;
15970;SDS011;59785;52.582;13.892;2022-08-19T08:20:10;32.33;;;26.60;;
15970;SDS011;59785;52.582;13.892;2022-08-19T08:22:42;30.05;;;25.38;;
15970;SDS011;59785;52.582;13.892;2022-08-19T08:25:27;28.45;;;25.35;;
15970;SDS011;59785;52.582;13.892;2022-08-19T08:27:57;27.00;;;24.02;;
15970;SDS011;59785;52.582;13.892;2022-08-19T08:30:26;28.23;;;25.23;;
15970;SDS011;59785;52.582;13.892;2022-08-19T08:32:57;29.05;;;24.70;;
15970;SDS011;59785;52.582;13.892;2022-08-19T08:35:24;27.35;;;24.55;;
15970;SDS011;59785;52.582;13.892;2022-08-19T08:37:51;30.45;;;27.23;;
15970;SDS011;59785;52.582;13.892;2022-08-19T08:40:26;29.08;;;26.27;;
15970;SDS011;59785;52.582;13.892;2022-08-19T08:43:06;28.33;;;25.58;;
15970;SDS011;59785;52.582;13.892;2022-08-19T08:45:38;30.00;;;26.27;;
15970;SDS011;59785;52.582;13.892;2022-08-19T08:48:29;29.70;;;26.80;;
15970;SDS011;59785;52.582;13.892;2022-08-19T08:51:03;29.63;;;26.92;;
15970;SDS011;59785;52.582;13.892;2022-08-19T08:53:34;27.02;;;24.42;;
15970;SDS011;59785;52.582;13.892;2022-08-19T08:56:06;26.20;;;23.67;;
15970;SDS011;59785;52.582;13.892;2022-08-19T09:01:25;25.98;;;23.58;;
15970;SDS011;59785;52.582;13.892;2022-08-19T09:03:55;26.00;;;23.60;;
15970;SDS011;59785;52.582;13.892;2022-08-19T09:06:29;25.83;;;23.45;;
15970;SDS011;59785;52.582;13.892;2022-08-19T09:09:17;23.63;;;21.30;;
15970;SDS011;59785;52.582;13.892;2022-08-19T09:17:16;18.85;;;17.00;;
15970;SDS011;59785;52.582;13.892;2022-08-19T09:19:55;19.27;;;17.25;;
15970;SDS011;59785;52.582;13.892;2022-08-19T09:22:23;18.33;;;16.60;;
15970;SDS011;59785;52.582;13.892;2022-08-19T09:24:52;17.10;;;14.88;;
15970;SDS011;59785;52.582;13.892;2022-08-19T09:27:19;16.38;;;14.50;;
15970;SDS011;59785;52.582;13.892;2022-08-19T09:30:08;16.00;;;14.30;;
15970;SDS011;59785;52.582;13.892;2022-08-19T09:32:38;15.77;;;13.80;;
15970;SDS011;59785;52.582;13.892;2022-08-19T09:35:07;17.20;;;14.80;;
15970;SDS011;59785;52.582;13.892;2022-08-19T09:37:34;16.70;;;14.68;;
15970;SDS011;59785;52.582;13.892;2022-08-19T09:40:01;16.70;;;15.07;;
15970;SDS011;59785;52.582;13.892;2022-08-19T09:42:27;17.80;;;15.63;;
15970;SDS011;59785;52.582;13.892;2022-08-19T09:44:55;17.83;;;15.27;;
15970;SDS011;59785;52.582;13.892;2022-08-19T09:47:24;17.02;;;14.90;;
15970;SDS011;59785;52.582;13.892;2022-08-19T09:49:50;16.30;;;14.60;;
15970;SDS011;59785;52.582;13.892;2022-08-19T09:52:16;17.60;;;14.80;;
15970;SDS011;59785;52.582;13.892;2022-08-19T09:54:43;16.33;;;14.63;;
15970;SDS011;59785;52.582;13.892;2022-08-19T09:57:16;17.70;;;15.90;;
15970;SDS011;59785;52.582;13.892;2022-08-19T09:59:43;18.58;;;16.05;;
15970;SDS011;59785;52.582;13.892;2022-08-19T10:02:10;17.83;;;16.02;;
15970;SDS011;59785;52.582;13.892;2022-08-19T10:04:37;17.88;;;16.13;;
15970;SDS011;59785;52.582;13.892;2022-08-19T10:07:22;18.45;;;16.55;;
15970;SDS011;59785;52.582;13.892;2022-08-19T10:10:02;19.95;;;16.60;;
15970;SDS011;59785;52.582;13.892;2022-08-19T10:12:29;18.38;;;16.48;;
15970;SDS011;59785;52.582;13.892;2022-08-19T10:14:56;18.95;;;16.23;;
15970;SDS011;59785;52.582;13.892;2022-08-19T10:17:22;21.33;;;17.80;;
15970;SDS011;59785;52.582;13.892;2022-08-19T10:19:52;19.25;;;17.35;;
15970;SDS011;59785;52.582;13.892;2022-08-19T10:22:20;18.75;;;16.95;;
15970;SDS011;59785;52.582;13.892;2022-08-19T10:24:47;17.20;;;15.50;;
15970;SDS011;59785;52.582;13.892;2022-08-19T10:27:13;17.02;;;14.80;;
15970;SDS011;59785;52.582;13.892;2022-08-19T10:29:41;16.83;;;15.18;;
15970;SDS011;59785;52.582;13.892;2022-08-19T10:32:11;15.25;;;13.75;;
15970;SDS011;59785;52.582;13.892;2022-08-19T10:34:39;16.05;;;13.85;;
15970;SDS011;59785;52.582;13.892;2022-08-19T10:37:13;15.93;;;14.02;;
15970;SDS011;59785;52.582;13.892;2022-08-19T10:39:45;15.10;;;13.50;;
15970;SDS011;59785;52.582;13.892;2022-08-19T10:42:14;15.25;;;13.10;;
15970;SDS011;59785;52.582;13.892;2022-08-19T10:44:41;15.60;;;12.90;;
15970;SDS011;59785;52.582;13.892;2022-08-19T10:47:08;13.80;;;12.43;;
15970;SDS011;59785;52.582;13.892;2022-08-19T10:49:50;14.73;;;13.10;;
15970;SDS011;59785;52.582;13.892;2022-08-19T10:52:37;14.95;;;13.35;;
15970;SDS011;59785;52.582;13.892;2022-08-19T10:55:04;15.40;;;13.35;;
15970;SDS011;59785;52.582;13.892;2022-08-19T10:57:54;16.05;;;14.30;;
15970;SDS011;59785;52.582;13.892;2022-08-19T11:00:27;15.52;;;13.85;;
15970;SDS011;59785;52.582;13.892;2022-08-19T11:02:54;15.35;;;13.85;;
15970;SDS011;59785;52.582;13.892;2022-08-19T11:05:20;15.45;;;13.90;;
15970;SDS011;59785;52.582;13.892;2022-08-19T11:07:49;15.65;;;14.02;;
15970;SDS011;59785;52.582;13.892;2022-08-19T11:10:17;14.52;;;13.13;;
15970;SDS011;59785;52.582;13.892;2022-08-19T11:12:47;15.23;;;13.68;;
15970;SDS011;59785;52.582;13.892;2022-08-19T11:15:13;15.60;;;13.98;;
15970;SDS011;59785;52.582;13.892;2022-08-19T11:17:39;15.30;;;13.73;;
15970;SDS011;59785;52.582;13.892;2022-08-19T11:20:10;13.85;;;12.45;;
15970;SDS011;59785;52.582;13.892;2022-08-19T11:22:38;15.88;;;13.40;;
15970;SDS011;59785;52.582;13.892;2022-08-19T11:25:07;14.77;;;13.32;;
15970;SDS011;59785;52.582;13.892;2022-08-19T11:27:37;14.68;;;12.57;;
15970;SDS011;59785;52.582;13.892;2022-08-19T11:30:05;14.77;;;13.25;;
15970;SDS011;59785;52.582;13.892;2022-08-19T11:32:37;14.55;;;13.00;;
15970;SDS011;59785;52.582;13.892;2022-08-19T11:35:03;14.30;;;11.52;;
15970;SDS011;59785;52.582;13.892;2022-08-19T11:37:30;14.30;;;12.30;;
15970;SDS011;59785;52.582;13.892;2022-08-19T11:39:56;13.23;;;11.82;;
15970;SDS011;59785;52.582;13.892;2022-08-19T11:42:22;13.77;;;12.38;;
15970;SDS011;59785;52.582;13.892;2022-08-19T11:45:07;14.82;;;13.35;;
15970;SDS011;59785;52.582;13.892;2022-08-19T11:47:33;14.13;;;12.30;;
15970;SDS011;59785;52.582;13.892;2022-08-19T11:50:00;13.60;;;12.20;;
15970;SDS011;59785;52.582;13.892;2022-08-19T11:52:26;13.88;;;12.57;;
15970;SDS011;59785;52.582;13.892;2022-08-19T11:54:53;14.07;;;12.57;;
15970;SDS011;59785;52.582;13.892;2022-08-19T11:57:19;14.50;;;13.00;;
15970;SDS011;59785;52.582;13.892;2022-08-19T11:59:49;14.63;;;12.48;;
15970;SDS011;59785;52.582;13.892;2022-08-19T12:02:17;13.77;;;12.27;;
15970;SDS011;59785;52.582;13.892;2022-08-19T12:04:44;13.90;;;12.50;;
15970;SDS011;59785;52.582;13.892;2022-08-19T12:07:11;14.23;;;12.82;;
15970;SDS011;59785;52.582;13.892;2022-08-19T12:09:37;15.98;;;14.35;;
15970;SDS011;59785;52.582;13.892;2022-08-19T12:12:07;14.65;;;12.55;;
15970;SDS011;59785;52.582;13.892;2022-08-19T12:14:34;14.00;;;12.40;;
15970;SDS011;59785;52.582;13.892;2022-08-19T12:17:01;14.15;;;12.65;;
15970;SDS011;59785;52.582;13.892;2022-08-19T12:19:28;14.18;;;12.75;;
15970;SDS011;59785;52.582;13.892;2022-08-19T12:21:57;13.13;;;11.80;;
15970;SDS011;59785;52.582;13.892;2022-08-19T12:24:26;15.95;;;12.75;;
15970;SDS011;59785;52.582;13.892;2022-08-19T12:26:53;15.10;;;12.90;;
15970;SDS011;59785;52.582;13.892;2022-08-19T12:29:25;15.45;;;12.70;;
15970;SDS011;59785;52.582;13.892;2022-08-19T12:31:55;14.85;;;12.13;;
15970;SDS011;59785;52.582;13.892;2022-08-19T12:34:29;15.25;;;13.57;;
15970;SDS011;59785;52.582;13.892;2022-08-19T12:36:57;14.38;;;12.60;;
15970;SDS011;59785;52.582;13.892;2022-08-19T12:39:24;15.57;;;14.07;;
15970;SDS011;59785;52.582;13.892;2022-08-19T12:41:51;12.75;;;11.45;;
15970;SDS011;59785;52.582;13.892;2022-08-19T12:44:20;14.13;;;12.73;;
15970;SDS011;59785;52.582;13.892;2022-08-19T12:46:56;13.77;;;12.35;;
15970;SDS011;59785;52.582;13.892;2022-08-19T12:49:23;14.77;;;11.60;;
15970;SDS011;59785;52.582;13.892;2022-08-19T12:52:10;15.13;;;13.40;;
15970;SDS011;59785;52.582;13.892;2022-08-19T12:54:39;15.25;;;13.13;;
15970;SDS011;59785;52.582;13.892;2022-08-19T12:57:06;17.65;;;13.07;;
15970;SDS011;59785;52.582;13.892;2022-08-19T12:59:34;13.20;;;11.85;;
15970;SDS011;59785;52.582;13.892;2022-08-19T13:02:06;14.13;;;12.57;;
15970;SDS011;59785;52.582;13.892;2022-08-19T13:04:33;15.55;;;12.50;;
15970;SDS011;59785;52.582;13.892;2022-08-19T13:07:02;14.07;;;12.45;;
15970;SDS011;59785;52.582;13.892;2022-08-19T13:09:29;13.93;;;12.52;;
15970;SDS011;59785;52.582;13.892;2022-08-19T13:11:55;14.30;;;12.57;;
15970;SDS011;59785;52.582;13.892;2022-08-19T13:14:22;13.07;;;11.77;;
15970;SDS011;59785;52.582;13.892;2022-08-19T13:16:48;13.73;;;12.50;;
15970;SDS011;59785;52.582;13.892;2022-08-19T13:19:15;13.85;;;12.55;;
15970;SDS011;59785;52.582;13.892;2022-08-19T13:21:41;13.25;;;11.95;;
15970;SDS011;59785;52.582;13.892;2022-08-19T13:24:07;12.82;;;11.45;;
15970;SDS011;59785;52.582;13.892;2022-08-19T13:26:33;12.45;;;11.15;;
15970;SDS011;59785;52.582;13.892;2022-08-19T13:28:59;12.95;;;11.68;;
15970;SDS011;59785;52.582;13.892;2022-08-19T13:31:44;13.63;;;12.23;;
15970;SDS011;59785;52.582;13.892;2022-08-19T13:34:30;13.77;;;12.38;;
15970;SDS011;59785;52.582;13.892;2022-08-19T13:36:59;15.00;;;13.65;;
15970;SDS011;59785;52.582;13.892;2022-08-19T13:39:29;15.65;;;14.25;;
15970;SDS011;59785;52.582;13.892;2022-08-19T13:41:58;13.75;;;12.30;;
15970;SDS011;59785;52.582;13.892;2022-08-19T13:44:25;15.65;;;14.15;;
15970;SDS011;59785;52.582;13.892;2022-08-19T13:46:55;15.55;;;14.07;;
15970;SDS011;59785;52.582;13.892;2022-08-19T13:49:27;16.60;;;15.10;;
15970;SDS011;59785;52.582;13.892;2022-08-19T13:51:56;15.27;;;13.95;;
15970;SDS011;59785;52.582;13.892;2022-08-19T13:54:23;13.23;;;11.88;;
15970;SDS011;59785;52.582;13.892;2022-08-19T13:56:49;16.85;;;15.30;;
15970;SDS011;59785;52.582;13.892;2022-08-19T13:59:15;15.57;;;14.13;;
15970;SDS011;59785;52.582;13.892;2022-08-19T14:01:42;16.00;;;14.43;;
15970;SDS011;59785;52.582;13.892;2022-08-19T14:04:09;15.05;;;13.75;;
15970;SDS011;59785;52.582;13.892;2022-08-19T14:06:35;19.52;;;17.88;;
15970;SDS011;59785;52.582;13.892;2022-08-19T14:09:02;17.98;;;16.45;;
15970;SDS011;59785;52.582;13.892;2022-08-19T14:11:28;18.88;;;17.23;;
15970;SDS011;59785;52.582;13.892;2022-08-19T14:13:55;17.05;;;15.57;;
15970;SDS011;59785;52.582;13.892;2022-08-19T14:16:21;18.40;;;16.90;;
15970;SDS011;59785;52.582;13.892;2022-08-19T14:18:48;18.95;;;17.55;;
15970;SDS011;59785;52.582;13.892;2022-08-19T14:21:15;17.58;;;16.08;;
15970;SDS011;59785;52.582;13.892;2022-08-19T14:23:48;17.97;;;16.47;;
15970;SDS011;59785;52.582;13.892;2022-08-19T14:26:15;20.15;;;18.55;;
15970;SDS011;59785;52.582;13.892;2022-08-19T14:28:43;21.15;;;19.25;;
15970;SDS011;59785;52.582;13.892;2022-08-19T14:31:14;18.60;;;17.00;;
15970;SDS011;59785;52.582;13.892;2022-08-19T14:33:45;16.45;;;15.00;;
15970;SDS011;59785;52.582;13.892;2022-08-19T14:36:12;18.58;;;17.05;;
15970;SDS011;59785;52.582;13.892;2022-08-19T14:38:38;17.75;;;16.15;;
15970;SDS011;59785;52.582;13.892;2022-08-19T14:43:39;16.73;;;15.13;;